Time;durP1;ratioP1;P1;durP2;ratioP2;P2;SDS_P1;SDS_P2;PMS_P1;PMS_P2;Temp;Humidity;BMP_temperature;BMP_pressure;BME280_temperature;BME280_humidity;BME280_pressure;Samples;Min_cycle;Max_cycle;Signal;HPM_P1;HPM_P2
2024/04/11 00:00:55;;;;;;;5.28;3.95;;;308.00;2304.00;;;;;;5412968;26;20014;-70
2024/04/11 00:03:21;;;;;;;6.85;4.00;;;308.00;2304.00;;;;;;5405072;26;20526;-69
2024/04/11 00:05:46;;;;;;;7.43;4.10;;;308.00;2304.00;;;;;;5386872;26;20004;-70
2024/04/11 00:08:12;;;;;;;5.97;3.88;;;308.00;2304.00;;;;;;5387642;26;19992;-70
2024/04/11 00:10:38;;;;;;;10.57;4.32;;;307.90;2304.00;;;;;;5377626;26;20349;-72
2024/04/11 00:13:04;;;;;;;7.32;4.40;;;307.90;2304.00;;;;;;5387743;26;20015;-72
2024/04/11 00:15:31;;;;;;;6.57;4.10;;;;;;;;;;5409537;26;20003;-71
2024/04/11 00:17:57;;;;;;;9.30;4.10;;;;;;;;;;5377646;26;20431;-70
2024/04/11 00:20:23;;;;;;;7.10;4.25;;;;;;;;;;5374768;26;20000;-72
2024/04/11 00:22:50;;;;;;;6.13;3.92;;;308.10;2304.00;;;;;;5382272;26;20077;-73
2024/04/11 00:25:16;;;;;;;9.23;4.28;;;307.80;2304.00;;;;;;5399265;26;20304;-70
2024/04/11 00:27:42;;;;;;;5.85;4.15;;;307.70;2304.00;;;;;;5392963;26;20073;-70
2024/04/11 00:30:08;;;;;;;8.75;4.40;;;307.80;2304.00;;;;;;5377133;26;20423;-70
2024/04/11 00:32:33;;;;;;;7.20;4.50;;;307.50;2304.00;;;;;;5377169;26;20044;-70
2024/04/11 00:35:01;;;;;;;8.13;4.13;;;307.50;2304.00;;;;;;5394196;26;19999;-70
2024/04/11 00:37:31;;;;;;;7.85;4.18;;;307.50;2304.00;;;;;;5395920;26;19996;-70
2024/04/11 00:39:57;;;;;;;6.28;4.18;;;307.40;2304.00;;;;;;5377661;26;20007;-70
2024/04/11 00:42:23;;;;;;;6.38;4.35;;;307.40;2304.00;;;;;;5377449;26;20016;-70
2024/04/11 00:44:48;;;;;;;6.28;4.05;;;307.30;2304.00;;;;;;5391982;26;20081;-72
2024/04/11 00:47:15;;;;;;;6.25;4.28;;;307.30;2304.00;;;;;;5412949;26;20003;-69
2024/04/11 00:49:43;;;;;;;7.22;4.20;;;307.30;2304.00;;;;;;5412176;26;20010;-72
2024/04/11 00:52:10;;;;;;;7.35;4.25;;;307.20;2304.00;;;;;;5409910;26;19992;-70
2024/04/11 00:54:36;;;;;;;8.60;4.03;;;307.20;2304.00;;;;;;5396508;26;20019;-72
2024/04/11 00:57:07;;;;;;;6.97;4.20;;;307.20;2304.00;;;;;;5376630;26;20328;-72
2024/04/11 00:59:38;;;;;;;6.65;3.97;;;307.30;2304.00;;;;;;5377488;26;19996;-71
2024/04/11 01:02:05;;;;;;;6.72;4.10;;;307.20;2304.00;;;;;;5376399;26;20950;-72
2024/04/11 01:04:34;;;;;;;7.38;4.10;;;307.20;2304.00;;;;;;5384934;26;20028;-70
2024/04/11 01:07:08;;;;;;;6.15;3.90;;;307.20;2304.00;;;;;;5411507;26;20447;-72
2024/04/11 01:09:43;;;;;;;7.90;3.97;;;307.20;2304.00;;;;;;5409034;26;20089;-71
2024/04/11 01:12:12;;;;;;;7.00;4.07;;;282.50;2278.40;;;;;;5403858;26;20067;-72
2024/04/11 01:14:38;;;;;;;8.48;4.00;;;282.50;2278.40;;;;;;5401786;26;20018;-72
2024/04/11 01:17:04;;;;;;;6.93;3.85;;;282.50;2278.40;;;;;;5378696;26;20023;-72
2024/04/11 01:19:29;;;;;;;7.80;4.43;;;282.50;2278.40;;;;;;5380515;26;20416;-71
2024/04/11 01:21:57;;;;;;;9.75;4.20;;;282.50;2278.40;;;;;;5378703;26;20439;-71
2024/04/11 01:24:23;;;;;;;5.35;3.40;;;282.50;2278.40;;;;;;5386716;26;20408;-71
2024/04/11 01:26:49;;;;;;;6.97;3.67;;;282.50;2278.40;;;;;;5407313;26;20335;-71
2024/04/11 01:29:15;;;;;;;7.25;3.90;;;282.50;2278.40;;;;;;5379281;26;20076;-71
2024/04/11 01:31:44;;;;;;;8.90;3.75;;;282.40;2278.40;;;;;;5380113;26;19996;-71
2024/04/11 01:34:10;;;;;;;6.00;3.70;;;282.40;2278.40;;;;;;5382698;26;20000;-71
2024/04/11 01:36:35;;;;;;;7.32;4.18;;;282.40;2278.40;;;;;;5414902;26;20006;-71
2024/04/11 01:39:09;;;;;;;5.22;3.70;;;282.40;2278.40;;;;;;5384152;26;20000;-71
2024/04/11 01:41:37;;;;;;;6.03;3.75;;;282.40;2278.40;;;;;;5380597;26;20044;-71
2024/04/11 01:44:03;;;;;;;6.50;3.80;;;282.30;2278.40;;;;;;5378429;26;20010;-71
2024/04/11 01:46:29;;;;;;;5.63;3.50;;;282.30;2278.40;;;;;;5380327;26;20004;-71
2024/04/11 01:48:55;;;;;;;6.70;3.53;;;282.30;2278.40;;;;;;5379718;26;20000;-71
2024/04/11 01:51:20;;;;;;;6.47;3.80;;;282.30;2278.40;;;;;;5380275;26;20019;-71
2024/04/11 01:53:46;;;;;;;6.93;3.60;;;282.30;2278.40;;;;;;5380900;26;19992;-71
2024/04/11 01:56:12;;;;;;;5.70;3.15;;;282.30;2278.40;;;;;;5379757;26;20000;-71
2024/04/11 01:58:42;;;;;;;6.38;3.75;;;282.30;2278.40;;;;;;5380528;26;20011;-71
2024/04/11 02:01:12;;;;;;;5.25;3.65;;;282.20;2278.40;;;;;;5376067;26;20074;-71
2024/04/11 02:03:43;;;;;;;5.95;3.70;;;282.20;2278.40;;;;;;5378140;26;20050;-71
2024/04/11 02:06:11;;;;;;;6.25;3.67;;;282.20;2278.40;;;;;;5412278;26;20373;-71
2024/04/11 02:08:38;;;;;;;7.28;3.53;;;282.10;2278.40;;;;;;5414803;26;20007;-71
2024/04/11 02:11:06;;;;;;;7.60;3.47;;;282.10;2278.40;;;;;;5414445;26;20005;-71
2024/04/11 02:13:32;;;;;;;5.72;3.20;;;282.10;2278.40;;;;;;5405122;26;20004;-71
2024/04/11 02:16:01;;;;;;;5.93;3.33;;;282.10;2278.40;;;;;;5409756;26;20385;-71
2024/04/11 02:18:29;;;;;;;5.20;3.30;;;282.10;2278.40;;;;;;5398420;26;19991;-71
2024/04/11 02:20:55;;;;;;;6.65;3.70;;;282.10;2278.40;;;;;;5376629;26;20015;-70
2024/04/11 02:23:21;;;;;;;5.82;3.60;;;282.00;2278.40;;;;;;5379463;26;20004;-71
2024/04/11 02:25:51;;;;;;;8.50;3.50;;;282.10;2278.40;;;;;;5380628;26;20001;-72
2024/04/11 02:28:19;;;;;;;6.88;3.63;;;282.00;2278.40;;;;;;5379075;26;20009;-71
2024/04/11 02:30:45;;;;;;;8.43;4.00;;;282.00;2278.40;;;;;;5394686;26;20026;-71
2024/04/11 02:33:11;;;;;;;7.15;3.80;;;282.00;2278.40;;;;;;5415131;26;19999;-71
2024/04/11 02:35:40;;;;;;;5.95;3.33;;;282.00;2278.40;;;;;;5388674;26;20011;-71
2024/04/11 02:38:05;;;;;;;5.55;3.47;;;282.00;2278.40;;;;;;5379850;26;20426;-71
2024/04/11 02:40:31;;;;;;;5.85;3.75;;;282.00;2278.40;;;;;;5411113;26;19999;-71
2024/04/11 02:42:57;;;;;;;6.38;3.92;;;282.00;2278.40;;;;;;5414720;26;20431;-71
2024/04/11 02:45:23;;;;;;;6.97;3.90;;;282.00;2278.40;;;;;;5414583;26;20010;-71
2024/04/11 02:47:48;;;;;;;6.22;4.15;;;282.00;2278.40;;;;;;5415017;26;20385;-71
2024/04/11 02:50:15;;;;;;;6.35;4.10;;;282.00;2278.40;;;;;;5414198;26;20003;-71
2024/04/11 02:52:43;;;;;;;7.57;3.85;;;282.00;2278.40;;;;;;5413578;26;19999;-70
2024/04/11 02:55:11;;;;;;;7.78;4.03;;;282.00;2278.40;;;;;;5413516;26;20008;-71
2024/04/11 02:57:37;;;;;;;8.32;4.20;;;282.00;2278.40;;;;;;5398533;26;19999;-71
2024/04/11 03:00:04;;;;;;;8.55;4.00;;;282.00;2278.40;;;;;;5406304;26;20032;-71
2024/04/11 03:02:34;;;;;;;6.60;3.83;;;282.00;2278.40;;;;;;5380333;26;20012;-70
2024/04/11 03:05:00;;;;;;;6.72;4.10;;;281.90;2278.40;;;;;;5386522;26;20008;-70
2024/04/11 03:07:27;;;;;;;7.50;4.68;;;281.90;2278.40;;;;;;5399915;26;20046;-70
2024/04/11 03:09:53;;;;;;;8.68;4.40;;;281.90;2278.40;;;;;;5379097;26;20022;-71
2024/04/11 03:12:20;;;;;;;7.88;4.18;;;281.90;2278.40;;;;;;5390400;26;20034;-70
2024/04/11 03:14:46;;;;;;;8.13;4.10;;;281.80;2278.40;;;;;;5391424;26;19999;-71
2024/04/11 03:17:12;;;;;;;8.52;4.32;;;281.70;2278.40;;;;;;5382043;26;20004;-70
2024/04/11 03:19:39;;;;;;;5.97;3.88;;;281.70;2278.40;;;;;;5386887;26;20335;-71
2024/04/11 03:22:05;;;;;;;6.55;4.05;;;281.70;2278.40;;;;;;5391678;26;19995;-70
2024/04/11 03:24:32;;;;;;;8.23;4.28;;;281.70;2278.40;;;;;;5409358;26;20003;-71
2024/04/11 03:27:00;;;;;;;6.82;4.10;;;281.80;2278.40;;;;;;5403382;26;20023;-69
2024/04/11 03:29:27;;;;;;;6.22;4.00;;;281.70;2278.40;;;;;;5382620;26;20062;-70
2024/04/11 03:31:54;;;;;;;6.93;4.32;;;281.70;2278.40;;;;;;5383032;26;19996;-70
2024/04/11 03:34:20;;;;;;;6.55;4.10;;;281.60;2278.40;;;;;;5379250;26;20007;-70
2024/04/11 03:36:49;;;;;;;7.03;4.28;;;281.60;2278.40;;;;;;5379755;26;19996;-71
2024/04/11 03:39:15;;;;;;;8.70;4.43;;;281.60;2278.40;;;;;;5388765;26;20012;-70
2024/04/11 03:41:41;;;;;;;7.03;3.75;;;281.60;2278.40;;;;;;5397429;26;20008;-70
2024/04/11 03:44:09;;;;;;;6.43;4.25;;;281.60;2278.40;;;;;;5382355;26;20147;-70
2024/04/11 03:46:36;;;;;;;9.25;4.55;;;281.60;2278.40;;;;;;5387523;26;20008;-70
2024/04/11 03:49:04;;;;;;;7.70;4.47;;;281.60;2278.40;;;;;;5390871;26;20046;-70
2024/04/11 03:51:33;;;;;;;7.10;4.45;;;256.90;2252.80;;;;;;5388268;26;20056;-70
2024/04/11 03:54:00;;;;;;;9.23;4.55;;;281.60;2278.40;;;;;;5388053;26;20085;-71
2024/04/11 03:56:27;;;;;;;9.00;4.97;;;281.60;2278.40;;;;;;5391138;26;20782;-70
2024/04/11 03:58:57;;;;;;;9.32;4.65;;;281.60;2278.40;;;;;;5397174;26;20011;-71
2024/04/11 04:01:25;;;;;;;8.38;4.60;;;281.60;2278.40;;;;;;5383507;26;20020;-71
2024/04/11 04:03:52;;;;;;;7.88;4.60;;;281.60;2278.40;;;;;;5379940;26;20000;-71
2024/04/11 04:06:19;;;;;;;8.25;4.50;;;256.90;2252.80;;;;;;5390135;26;20001;-72
2024/04/11 04:08:47;;;;;;;7.43;4.65;;;256.90;2252.80;;;;;;5388157;26;20015;-71
2024/04/11 04:11:18;;;;;;;8.30;4.40;;;256.90;2252.80;;;;;;5382990;26;20427;-71
2024/04/11 04:13:44;;;;;;;7.68;4.78;;;281.60;2278.40;;;;;;5382615;26;20047;-70
2024/04/11 04:16:11;;;;;;;6.90;4.55;;;281.60;2278.40;;;;;;5383845;26;20431;-72
2024/04/11 04:18:41;;;;;;;9.85;4.90;;;281.60;2278.40;;;;;;5384379;26;20427;-69
2024/04/11 04:21:08;;;;;;;9.48;5.00;;;281.60;2278.40;;;;;;5375230;26;20836;-70
2024/04/11 04:23:34;;;;;;;9.18;4.80;;;281.70;2278.40;;;;;;5395801;26;20004;-72
2024/04/11 04:26:07;;;;;;;9.05;4.93;;;281.70;2278.40;;;;;;5395315;26;20000;-70
2024/04/11 04:28:35;;;;;;;8.35;4.97;;;281.80;2278.40;;;;;;5390029;26;20013;-72
2024/04/11 04:31:21;;;;;;;10.32;4.88;;;281.80;2278.40;;;;;;5384496;26;20005;-69
2024/04/11 04:33:52;;;;;;;8.40;4.57;;;281.90;2278.40;;;;;;5385030;26;20318;-69
2024/04/11 04:36:20;;;;;;;8.98;4.85;;;281.90;2278.40;;;;;;5382375;26;20077;-71
2024/04/11 04:38:47;;;;;;;10.50;4.50;;;282.00;2278.40;;;;;;5384775;26;20008;-71
2024/04/11 04:41:13;;;;;;;7.70;4.63;;;282.00;2278.40;;;;;;5384844;26;20704;-71
2024/04/11 04:43:42;;;;;;;9.43;5.07;;;282.10;2278.40;;;;;;5402002;26;20444;-71
2024/04/11 04:46:08;;;;;;;10.27;4.72;;;282.10;2278.40;;;;;;5384201;26;19999;-71
2024/04/11 04:48:34;;;;;;;8.45;5.00;;;282.10;2278.40;;;;;;5388379;26;20011;-71
2024/04/11 04:51:00;;;;;;;7.45;4.93;;;282.30;2278.40;;;;;;5387534;26;20004;-70
2024/04/11 04:53:26;;;;;;;10.20;5.13;;;282.40;2278.40;;;;;;5392792;26;20001;-71
2024/04/11 04:55:52;;;;;;;8.90;5.03;;;282.40;2278.40;;;;;;5381529;26;20450;-72
2024/04/11 04:58:20;;;;;;;11.48;5.47;;;282.50;2278.40;;;;;;5380582;26;20011;-71
2024/04/11 05:00:47;;;;;;;9.93;5.05;;;307.20;2304.00;;;;;;5400841;26;20291;-71
2024/04/11 05:03:14;;;;;;;9.35;5.45;;;307.20;2304.00;;;;;;5388660;26;20000;-71
2024/04/11 05:05:41;;;;;;;8.75;5.25;;;307.40;2304.00;;;;;;5395449;26;20039;-72
2024/04/11 05:08:07;;;;;;;13.95;6.35;;;307.40;2304.00;;;;;;5403464;26;20083;-72
2024/04/11 05:10:34;;;;;;;10.18;5.60;;;307.50;2304.00;;;;;;5389837;26;20386;-70
2024/04/11 05:13:01;;;;;;;8.23;5.25;;;307.50;2304.00;;;;;;5388129;26;20019;-70
2024/04/11 05:15:28;;;;;;;15.48;7.57;;;307.60;2304.00;;;;;;5385655;26;20004;-71
2024/04/11 05:17:54;;;;;;;15.38;8.45;;;307.70;2304.00;;;;;;5390266;26;20004;-72
2024/04/11 05:20:27;;;;;;;22.33;9.80;;;307.80;2304.00;;;;;;5409296;26;20086;-71
2024/04/11 05:22:53;;;;;;;20.25;10.43;;;307.90;2304.00;;;;;;5383015;26;20000;-71
2024/04/11 05:25:22;;;;;;;12.05;6.10;;;308.00;2304.00;;;;;;5381131;26;20024;-72
2024/04/11 05:27:48;;;;;;;9.95;5.97;;;308.00;2304.00;;;;;;5403214;26;20000;-72
2024/04/11 05:30:14;;;;;;;9.32;5.10;;;308.10;2304.00;;;;;;5393295;26;20650;-72
2024/04/11 05:32:46;;;;;;;7.50;4.70;;;332.80;2329.60;;;;;;5407663;26;20000;-72
2024/04/11 05:35:14;;;;;;;8.55;4.72;;;332.90;2329.60;;;;;;5407043;26;20000;-71
2024/04/11 05:37:40;;;;;;;9.88;4.65;;;333.20;2329.60;;;;;;5403682;26;20350;-72
2024/04/11 05:40:07;;;;;;;8.65;4.80;;;333.10;2329.60;;;;;;5381487;26;20004;-72
2024/04/11 05:42:44;;;;;;;9.52;5.03;;;333.40;2329.60;;;;;;5386338;26;20006;-70
2024/04/11 05:45:18;;;;;;;7.88;4.85;;;333.30;2329.60;;;;;;5398359;26;20000;-72
2024/04/11 05:47:44;;;;;;;6.60;4.47;;;333.40;2329.60;;;;;;5383916;26;20087;-71
2024/04/11 05:50:10;;;;;;;8.18;4.97;;;333.50;2329.60;;;;;;5405234;26;20453;-71
2024/04/11 05:52:36;;;;;;;7.55;5.07;;;333.70;2329.60;;;;;;5393474;26;19992;-70
2024/04/11 05:55:02;;;;;;;9.30;5.13;;;358.40;2329.60;;;;;;5392640;26;20008;-72
2024/04/11 05:57:29;;;;;;;8.45;4.80;;;358.40;2329.60;;;;;;5407270;26;20319;-71
2024/04/11 05:59:55;;;;;;;11.80;5.70;;;358.50;2329.60;;;;;;5393027;26;20069;-71
2024/04/11 06:02:21;;;;;;;10.10;5.00;;;358.70;2329.60;;;;;;5381885;26;20003;-72
2024/04/11 06:04:47;;;;;;;11.27;5.00;;;358.70;2329.60;;;;;;5384376;26;20011;-72
2024/04/11 06:07:14;;;;;;;11.20;5.22;;;358.90;2329.60;;;;;;5383066;26;20594;-70
2024/04/11 06:09:41;;;;;;;11.80;5.75;;;358.90;2329.60;;;;;;5385340;26;20014;-71
2024/04/11 06:12:10;;;;;;;9.50;5.30;;;;;;;;;;5388743;26;20011;-70
2024/04/11 06:14:36;;;;;;;9.82;5.70;;;384.00;2329.60;;;;;;5385058;26;20428;-70
2024/04/11 06:17:02;;;;;;;9.15;5.45;;;;;;;;;;5383958;26;20004;-71
2024/04/11 06:19:28;;;;;;;9.80;5.95;;;384.30;2329.60;;;;;;5389248;26;20050;-71
2024/04/11 06:21:54;;;;;;;10.07;6.00;;;384.30;2329.60;;;;;;5390667;26;20008;-71
2024/04/11 06:24:20;;;;;;;9.90;5.70;;;384.50;2329.60;;;;;;5390067;26;20748;-71
2024/04/11 06:26:46;;;;;;;8.52;5.28;;;384.30;2329.60;;;;;;5395080;26;19999;-71
2024/04/11 06:29:14;;;;;;;10.55;5.70;;;384.60;2329.60;;;;;;5384090;26;20003;-71
2024/04/11 06:31:40;;;;;;;9.65;5.40;;;409.60;2355.20;;;;;;5410703;26;20420;-72
2024/04/11 06:34:08;;;;;;;8.90;5.97;;;409.80;2355.20;;;;;;5418391;26;20422;-70
2024/04/11 06:36:34;;;;;;;11.35;6.20;;;409.90;2355.20;;;;;;5416565;26;20475;-70
2024/04/11 06:38:59;;;;;;;12.85;5.78;;;435.50;2355.20;;;;;;5405396;26;20081;-71
2024/04/11 06:41:27;;;;;;;9.48;5.90;;;564.00;1971.20;;;;;;5412857;26;19995;-71
2024/04/11 06:43:53;;;;;;;8.52;5.15;;;640.00;1612.80;;;;;;5416529;26;20069;-71
2024/04/11 06:46:19;;;;;;;8.27;5.47;;;;;;;;;;5416712;26;20007;-70
2024/04/11 06:48:45;;;;;;;13.90;5.47;;;;;;;;;;5416557;26;19991;-71
2024/04/11 06:51:14;;;;;;;9.25;5.65;;;;;;;;;;5416274;26;20453;-70
2024/04/11 06:53:43;;;;;;;10.13;5.45;;;;;;;;;;5416399;26;20064;-70
2024/04/11 06:56:11;;;;;;;11.43;5.20;;;;;;;;;;5416099;26;20006;-70
2024/04/11 06:58:40;;;;;;;14.77;5.47;;;768.80;1177.60;;;;;;5393459;26;20000;-70
2024/04/11 07:01:09;;;;;;;10.00;6.13;;;;;;;;;;5405530;26;20028;-70
2024/04/11 07:03:39;;;;;;;12.43;6.20;;;;;;;;;;5416052;26;20035;-70
2024/04/11 07:08:47;;;;;;;10.27;5.80;;;640.90;1356.80;;;;;;5416122;26;20067;-70
2024/04/11 07:11:32;;;;;;;7.93;5.90;;;589.40;1510.40;;;;;;5415990;26;20007;-71
2024/04/11 07:13:59;;;;;;;10.07;6.07;;;563.60;1612.80;;;;;;5415952;26;19999;-71
2024/04/11 07:16:29;;;;;;;15.52;6.32;;;538.10;1715.20;;;;;;5397533;26;20029;-71
2024/04/11 07:18:55;;;;;;;9.85;5.68;;;512.60;1715.20;;;;;;5394511;26;20003;-71
2024/04/11 07:21:25;;;;;;;10.82;5.70;;;512.50;1766.40;;;;;;5415998;26;19995;-71
2024/04/11 07:23:55;;;;;;;9.10;5.07;;;512.30;1792.00;;;;;;5416058;26;20015;-71
2024/04/11 07:26:24;;;;;;;9.82;5.75;;;512.50;1792.00;;;;;;5415564;26;20439;-71
2024/04/11 07:28:51;;;;;;;9.32;5.47;;;512.30;1766.40;;;;;;5416098;26;19991;-71
2024/04/11 07:31:17;;;;;;;11.13;5.65;;;512.00;1792.00;;;;;;5415937;26;19999;-70
2024/04/11 07:33:48;;;;;;;9.45;5.05;;;487.20;1817.60;;;;;;5415936;26;20450;-71
2024/04/11 07:36:16;;;;;;;9.20;5.45;;;487.20;1817.60;;;;;;5410065;26;19999;-71
2024/04/11 07:38:43;;;;;;;11.30;5.50;;;512.20;1817.60;;;;;;5383750;26;20000;-70
2024/04/11 07:41:18;;;;;;;9.82;5.38;;;512.10;1817.60;;;;;;5415499;26;20000;-71
2024/04/11 07:43:57;;;;;;;9.88;5.30;;;512.10;1817.60;;;;;;5413272;26;20006;-71
2024/04/11 07:46:33;;;;;;;7.20;5.15;;;512.30;1843.20;;;;;;5415800;26;20006;-71
2024/04/11 07:48:59;;;;;;;15.68;5.72;;;512.20;1843.20;;;;;;5415584;26;20019;-71
2024/04/11 07:51:28;;;;;;;9.05;5.40;;;512.50;1792.00;;;;;;5415415;26;20323;-71
2024/04/11 07:53:55;;;;;;;9.18;5.13;;;512.60;1792.00;;;;;;5415539;26;20000;-71
2024/04/11 07:56:25;;;;;;;10.07;5.40;;;512.80;1817.60;;;;;;5415257;26;20011;-71
2024/04/11 07:58:58;;;;;;;9.60;5.35;;;512.90;1792.00;;;;;;5415551;26;19995;-71
2024/04/11 08:01:31;;;;;;;9.68;5.35;;;537.80;1817.60;;;;;;5394891;26;20498;-71
2024/04/11 08:04:02;;;;;;;10.32;5.15;;;537.90;1792.00;;;;;;5389006;26;20004;-71
2024/04/11 08:06:28;;;;;;;9.13;5.43;;;537.90;1792.00;;;;;;5380064;26;20011;-71
2024/04/11 08:08:56;;;;;;;8.65;5.47;;;538.30;1792.00;;;;;;5379741;26;20036;-71
2024/04/11 08:11:22;;;;;;;8.13;5.20;;;538.10;1766.40;;;;;;5379790;26;20013;-71
2024/04/11 08:13:48;;;;;;;6.65;5.15;;;563.20;1740.80;;;;;;5379660;26;20000;-71
2024/04/11 08:16:14;;;;;;;8.15;5.13;;;538.50;1766.40;;;;;;5379493;26;20002;-71
2024/04/11 08:18:39;;;;;;;10.93;5.80;;;563.20;1766.40;;;;;;5380024;26;20000;-72
2024/04/11 08:21:08;;;;;;;10.60;5.22;;;563.20;1766.40;;;;;;5382224;26;20004;-71
2024/04/11 08:23:39;;;;;;;9.18;5.22;;;563.20;1740.80;;;;;;5377693;26;19996;-71
2024/04/11 08:26:05;;;;;;;7.57;5.15;;;563.40;1740.80;;;;;;5378563;26;20073;-72
2024/04/11 08:28:37;;;;;;;10.55;5.07;;;563.90;1740.80;;;;;;5379546;26;19996;-72
2024/04/11 08:31:06;;;;;;;8.68;5.20;;;563.80;1766.40;;;;;;5379685;26;20359;-72
2024/04/11 08:33:35;;;;;;;10.07;5.07;;;563.90;1689.60;;;;;;5379483;26;19996;-71
2024/04/11 08:36:08;;;;;;;10.25;5.20;;;563.90;1689.60;;;;;;5379479;26;20000;-71
2024/04/11 08:38:34;;;;;;;9.23;4.75;;;563.90;1689.60;;;;;;5378357;26;20007;-71
2024/04/11 08:41:06;;;;;;;9.55;5.15;;;589.10;1664.00;;;;;;5375662;26;20320;-71
2024/04/11 08:43:35;;;;;;;7.97;4.88;;;588.90;1664.00;;;;;;5379067;26;20004;-72
2024/04/11 08:46:06;;;;;;;9.15;4.85;;;589.00;1638.40;;;;;;5378423;26;20078;-72
2024/04/11 08:48:32;;;;;;;10.13;5.20;;;588.90;1664.00;;;;;;5379467;26;20451;-72
2024/04/11 08:51:05;;;;;;;8.40;5.03;;;589.00;1664.00;;;;;;5379265;26;20007;-72
2024/04/11 08:53:36;;;;;;;10.02;5.00;;;589.10;1664.00;;;;;;5379161;26;20455;-72
2024/04/11 08:56:02;;;;;;;8.40;5.20;;;589.10;1638.40;;;;;;5378966;26;20000;-72
2024/04/11 08:58:29;;;;;;;7.50;4.53;;;589.20;1612.80;;;;;;5380728;26;20011;-70
2024/04/11 09:00:57;;;;;;;11.48;4.88;;;589.40;1638.40;;;;;;5386280;26;20023;-70
2024/04/11 09:03:25;;;;;;;11.95;5.45;;;589.40;1612.80;;;;;;5388043;26;20023;-69
2024/04/11 09:05:52;;;;;;;7.75;4.70;;;589.20;1612.80;;;;;;5381450;26;20004;-72
2024/04/11 09:08:19;;;;;;;11.52;5.45;;;589.30;1612.80;;;;;;5387184;26;20081;-70
2024/04/11 09:10:46;;;;;;;11.02;5.03;;;589.40;1587.20;;;;;;5384844;26;20051;-72
2024/04/11 09:13:18;;;;;;;8.63;4.85;;;589.70;1587.20;;;;;;5386410;26;20011;-70
2024/04/11 09:15:43;;;;;;;8.52;4.43;;;614.70;1587.20;;;;;;5384970;26;20022;-70
2024/04/11 09:18:20;;;;;;;7.78;4.88;;;614.80;1536.00;;;;;;5387174;26;20003;-70
2024/04/11 09:20:46;;;;;;;8.68;5.00;;;614.90;1536.00;;;;;;5383587;26;20001;-70
2024/04/11 09:23:19;;;;;;;9.32;5.22;;;615.00;1561.60;;;;;;5382871;26;20319;-70
2024/04/11 09:25:45;;;;;;;8.98;5.40;;;614.70;1561.60;;;;;;5391717;26;20008;-70
2024/04/11 09:28:11;;;;;;;11.55;5.72;;;614.60;1561.60;;;;;;5393780;26;20015;-69
2024/04/11 09:30:39;;;;;;;7.93;4.65;;;614.60;1561.60;;;;;;5391768;26;19996;-70
2024/04/11 09:33:10;;;;;;;11.27;4.72;;;614.70;1561.60;;;;;;5393978;26;20015;-70
2024/04/11 09:35:40;;;;;;;11.13;4.90;;;614.70;1536.00;;;;;;5393842;26;20008;-69
2024/04/11 09:38:12;;;;;;;8.93;5.10;;;614.80;1536.00;;;;;;5388466;26;20001;-72
2024/04/11 09:40:43;;;;;;;9.05;4.72;;;614.90;1536.00;;;;;;5384852;26;20007;-70
2024/04/11 09:43:15;;;;;;;11.13;4.80;;;614.80;1536.00;;;;;;5386097;26;20014;-72
2024/04/11 09:45:47;;;;;;;8.27;4.80;;;614.70;1536.00;;;;;;5390390;26;19995;-73
2024/04/11 09:48:13;;;;;;;9.77;5.18;;;615.00;1510.40;;;;;;5384564;26;20335;-69
2024/04/11 09:50:40;;;;;;;12.35;5.15;;;615.00;1536.00;;;;;;5386845;26;20014;-69
2024/04/11 09:53:10;;;;;;;12.48;4.53;;;615.00;1510.40;;;;;;5379465;26;20003;-69
2024/04/11 09:55:36;;;;;;;11.18;4.60;;;615.10;1510.40;;;;;;5403231;26;20000;-69
2024/04/11 09:58:06;;;;;;;10.82;5.13;;;640.40;1484.80;;;;;;5394196;26;20576;-69
2024/04/11 10:03:19;;;;;;;14.38;4.65;;;640.40;1484.80;;;;;;5383721;26;20957;-69
2024/04/11 10:05:51;;;;;;;11.10;4.90;;;640.40;1459.20;;;;;;5390340;26;19996;-72
2024/04/11 10:08:27;;;;;;;9.43;4.47;;;640.80;1459.20;;;;;;5379066;26;20032;-69
2024/04/11 10:10:54;;;;;;;7.07;4.30;;;640.60;1459.20;;;;;;5394701;26;20011;-69
2024/04/11 10:13:24;;;;;;;7.68;4.30;;;665.80;1459.20;;;;;;5387503;26;20018;-69
2024/04/11 10:16:21;;;;;;;7.22;4.28;;;665.60;1459.20;;;;;;5388546;26;20461;-69
2024/04/11 10:18:53;;;;;;;9.85;4.40;;;665.60;1459.20;;;;;;5384973;26;20381;-68
2024/04/11 10:21:26;;;;;;;9.18;4.30;;;666.00;1459.20;;;;;;5392575;26;20000;-71
2024/04/11 10:23:55;;;;;;;9.80;4.50;;;666.10;1433.60;;;;;;5383656;26;19996;-68
2024/04/11 10:26:34;;;;;;;8.60;4.72;;;666.00;1433.60;;;;;;5407424;26;19991;-72
2024/04/11 10:29:19;;;;;;;8.80;3.92;;;665.90;1433.60;;;;;;5401742;26;20012;-71
2024/04/11 10:31:47;;;;;;;6.45;4.50;;;665.90;1433.60;;;;;;5399429;26;20008;-68
2024/04/11 10:34:19;;;;;;;9.15;4.50;;;666.10;1433.60;;;;;;5384508;26;20000;-68
2024/04/11 10:36:53;;;;;;;13.15;4.75;;;666.00;1433.60;;;;;;5392568;26;20095;-73
2024/04/11 10:39:20;;;;;;;9.40;4.13;;;665.90;1433.60;;;;;;5378854;26;20001;-71
2024/04/11 10:41:51;;;;;;;7.30;4.15;;;665.70;1459.20;;;;;;5397137;26;20027;-69
2024/04/11 10:44:18;;;;;;;8.20;4.80;;;665.80;1459.20;;;;;;5377412;26;20000;-71
2024/04/11 10:46:44;;;;;;;9.73;4.13;;;665.90;1459.20;;;;;;5382816;26;20010;-70
2024/04/11 10:49:15;;;;;;;13.98;4.70;;;666.30;1433.60;;;;;;5400118;26;20043;-68
2024/04/11 10:51:50;;;;;;;8.18;4.63;;;666.00;1433.60;;;;;;5407397;26;20003;-69
2024/04/11 10:54:17;;;;;;;8.95;3.85;;;666.30;1433.60;;;;;;5396605;26;20044;-70
2024/04/11 10:56:44;;;;;;;11.90;4.32;;;666.30;1433.60;;;;;;5381346;26;19996;-69
2024/04/11 10:59:17;;;;;;;9.98;4.30;;;666.50;1433.60;;;;;;5388249;26;20011;-71
2024/04/11 11:01:51;;;;;;;8.25;3.90;;;666.40;1408.00;;;;;;5389400;26;20326;-68
2024/04/11 11:04:20;;;;;;;10.15;4.30;;;666.30;1408.00;;;;;;5392261;26;20004;-66
2024/04/11 11:06:51;;;;;;;9.82;4.25;;;666.50;1408.00;;;;;;5377193;26;20015;-69
2024/04/11 11:09:18;;;;;;;29.30;6.70;;;666.50;1408.00;;;;;;5377311;26;20443;-68
2024/04/11 11:11:47;;;;;;;8.80;3.97;;;691.20;1408.00;;;;;;5376294;26;20015;-68
2024/04/11 11:14:17;;;;;;;7.25;4.00;;;691.30;1408.00;;;;;;5389218;26;20000;-68
2024/04/11 11:16:57;;;;;;;11.95;4.28;;;691.50;1382.40;;;;;;5392692;26;20044;-69
2024/04/11 11:19:25;;;;;;;6.18;3.65;;;692.00;1408.00;;;;;;5384773;26;20509;-70
2024/04/11 11:21:51;;;;;;;6.70;4.00;;;691.80;1382.40;;;;;;5376259;26;20405;-69
2024/04/11 11:24:25;;;;;;;13.00;4.60;;;691.80;1382.40;;;;;;5386475;26;20004;-68
2024/04/11 11:26:55;;;;;;;11.02;4.20;;;691.60;1382.40;;;;;;5377365;26;20035;-69
2024/04/11 11:29:25;;;;;;;6.95;4.03;;;691.80;1382.40;;;;;;5391833;26;20105;-69
2024/04/11 11:32:01;;;;;;;6.63;4.32;;;692.00;1382.40;;;;;;5381567;26;20004;-70
2024/04/11 11:34:42;;;;;;;9.32;4.10;;;716.80;1382.40;;;;;;5396143;26;20050;-69
2024/04/11 11:37:12;;;;;;;22.83;5.35;;;716.90;1382.40;;;;;;5375685;26;20104;-69
2024/04/11 11:39:49;;;;;;;9.52;4.60;;;717.00;1382.40;;;;;;5379448;26;20022;-70
2024/04/11 11:42:31;;;;;;;7.88;4.57;;;717.40;1382.40;;;;;;5380112;26;20438;-70
2024/04/11 11:47:34;;;;;;;8.82;5.07;;;717.00;1382.40;;;;;;5378102;26;20447;-69
2024/04/11 11:50:16;;;;;;;7.97;4.32;;;717.10;1382.40;;;;;;5374681;26;20038;-69
2024/04/11 11:52:43;;;;;;;8.00;4.72;;;717.30;1382.40;;;;;;5386508;26;20004;-70
2024/04/11 11:55:16;;;;;;;9.15;4.90;;;717.30;1382.40;;;;;;5389957;26;20000;-69
2024/04/11 11:58:02;;;;;;;9.35;4.45;;;717.30;1382.40;;;;;;5385072;26;20018;-67
2024/04/11 12:00:32;;;;;;;8.25;4.63;;;717.20;1382.40;;;;;;5389475;26;20010;-67
2024/04/11 12:03:00;;;;;;;11.80;4.40;;;717.40;1356.80;;;;;;5393097;26;20014;-70
2024/04/11 12:05:28;;;;;;;24.42;6.05;;;717.70;1356.80;;;;;;5393999;26;20023;-69
2024/04/11 12:07:54;;;;;;;13.30;4.90;;;;;;;;;;5384447;26;20000;-70
2024/04/11 12:11:14;;;;;;;11.27;4.78;;;717.70;1356.80;;;;;;5395316;26;20077;-70
2024/04/11 12:13:30;;;;;;;10.80;4.20;;;717.50;1356.80;;;;;;5409750;26;20015;-70
2024/04/11 12:15:57;;;;;;;10.48;4.63;;;717.50;1356.80;;;;;;5381170;26;20008;-70
2024/04/11 12:18:26;;;;;;;8.60;4.30;;;717.40;1356.80;;;;;;5377646;26;20027;-71
2024/04/11 12:20:52;;;;;;;7.38;4.15;;;717.40;1356.80;;;;;;5375512;26;20514;-68
2024/04/11 12:23:22;;;;;;;7.50;4.60;;;717.30;1382.40;;;;;;5396390;26;20311;-70
2024/04/11 12:25:49;;;;;;;10.13;4.63;;;717.60;1331.20;;;;;;5396286;26;20000;-68
2024/04/11 12:28:19;;;;;;;16.85;4.68;;;717.40;1356.80;;;;;;5383606;26;20316;-71
2024/04/11 12:30:46;;;;;;;11.63;4.50;;;717.40;1382.40;;;;;;5383917;26;20031;-70
2024/04/11 12:33:12;;;;;;;8.90;4.40;;;717.40;1356.80;;;;;;5392635;26;19999;-70
2024/04/11 12:35:55;;;;;;;10.65;4.28;;;717.10;1382.40;;;;;;5377326;26;20386;-70